Time;durP1;ratioP1;P1;durP2;ratioP2;P2;SDS_P1;SDS_P2;PMS_P1;PMS_P2;Temp;Humidity;BMP_temperature;BMP_pressure;BME280_temperature;BME280_humidity;BME280_pressure;Samples;Min_cycle;Max_cycle;Signal;HPM_P1;HPM_P2
2023/06/19 00:02:26;;;;;;;;;;;;;;;23.55;47.37;97821.28;7362577;19;19911;-72
2023/06/19 00:04:52;;;;;;;;;;;;;;;23.47;47.65;97813.63;7369563;19;20628;-72
2023/06/19 00:07:21;;;;;;;;;;;;;;;23.39;48.10;97822.19;7359376;19;20006;-71
2023/06/19 00:09:48;;;;;;;;;;;;;;;23.35;47.83;97823.75;7370689;19;19915;-70
2023/06/19 00:12:15;;;;;;;;;;;;;;;23.31;47.87;97828.03;7363554;19;20278;-72
2023/06/19 00:14:42;;;;;;;;;;;;;;;23.27;47.65;97830.38;7369035;19;20394;-71
2023/06/19 00:17:09;;;;;;;;;;;;;;;23.25;47.54;97823.59;7371660;19;19914;-72
2023/06/19 00:19:36;;;;;;;;;;;;;;;23.21;48.08;97831.41;7363613;19;19915;-70
2023/06/19 00:22:03;;;;;;;;;;;;;;;23.20;47.88;97824.38;7367818;19;19915;-72
2023/06/19 00:24:30;;;;;;;;;;;;;;;23.19;48.27;97826.25;7362475;19;19925;-72
2023/06/19 00:27:02;;;;;;;;;;;;;;;23.18;48.47;97831.91;7372053;19;19931;-71
2023/06/19 00:29:29;;;;;;;;;;;;;;;23.15;48.41;97821.63;7366991;19;19943;-72
2023/06/19 00:31:56;;;;;;;;;;;;;;;23.16;48.68;97834.84;7367784;19;19944;-72
2023/06/19 00:34:25;;;;;;;;;;;;;;;23.18;48.65;97838.13;7359100;19;20015;-72
2023/06/19 00:36:56;;;;;;;;;;;;;;;23.25;48.00;97837.94;7369254;19;19974;-72
2023/06/19 00:39:23;;;;;;;;;;;;;;;23.31;47.53;97833.41;7361698;19;19918;-72
2023/06/19 00:41:51;;;;;;;;;;;;;;;23.38;47.77;97834.88;7366506;19;19919;-72
2023/06/19 00:44:18;;;;;;;;;;;;;;;23.41;47.92;97838.94;7363249;19;19927;-70
2023/06/19 00:46:45;;;;;;;;;;;;;;;23.43;47.35;97832.22;7369812;19;20508;-72
2023/06/19 00:49:11;;;;;;;;;;;;;;;23.46;46.95;97839.00;7366734;19;19918;-71
2023/06/19 00:51:38;;;;;;;;;;;;;;;23.48;48.27;97836.03;7360461;19;20007;-70
2023/06/19 00:54:06;;;;;;;;;;;;;;;23.50;47.39;97842.00;7367728;19;19918;-72
2023/06/19 00:56:34;;;;;;;;;;;;;;;23.49;47.50;97849.31;7361090;19;19957;-72
2023/06/19 00:59:01;;;;;;;;;;;;;;;23.50;47.82;97848.22;7367384;19;19922;-71
2023/06/19 01:01:28;;;;;;;;;;;;;;;23.51;48.62;97847.13;7360589;19;19922;-71
2023/06/19 01:03:55;;;;;;;;;;;;;;;23.51;48.14;97857.94;7367228;19;19922;-72
2023/06/19 01:06:23;;;;;;;;;;;;;;;23.52;48.37;97850.69;7356125;19;20284;-70
2023/06/19 01:09:01;;;;;;;;;;;;;;;23.49;48.53;97849.31;7363277;19;20018;-71
2023/06/19 01:11:31;;;;;;;;;;;;;;;23.50;49.49;97850.91;7359575;19;20589;-72
2023/06/19 01:14:06;;;;;;;;;;;;;;;23.50;48.40;97850.91;7365832;19;19975;-72
2023/06/19 01:16:32;;;;;;;;;;;;;;;23.50;48.16;97872.53;7360945;19;19919;-73
2023/06/19 01:19:01;;;;;;;;;;;;;;;23.49;47.82;97891.69;7367798;19;19952;-73
2023/06/19 01:21:27;;;;;;;;;;;;;;;23.58;47.67;97909.06;7360351;19;19927;-73
2023/06/19 01:23:55;;;;;;;;;;;;;;;23.66;45.11;97916.72;7362101;19;19923;-74
2023/06/19 01:26:26;;;;;;;;;;;;;;;23.82;44.85;97926.66;7357929;19;19923;-73
2023/06/19 01:28:54;;;;;;;;;;;;;;;23.83;46.17;97931.03;7366402;19;19927;-74
2023/06/19 01:31:22;;;;;;;;;;;;;;;23.94;44.68;97929.25;7360180;19;19929;-72
2023/06/19 01:33:49;;;;;;;;;;;;;;;23.95;45.18;97930.88;7365207;19;19919;-74
2023/06/19 01:36:17;;;;;;;;;;;;;;;23.86;45.85;97927.00;7369293;19;19923;-70
2023/06/19 01:38:44;;;;;;;;;;;;;;;23.84;45.36;97926.44;7366678;19;19919;-73
2023/06/19 01:41:11;;;;;;;;;;;;;;;23.80;45.03;97926.13;7364816;19;19915;-72
2023/06/19 01:43:41;;;;;;;;;;;;;;;23.63;46.50;97933.44;7356501;19;19929;-72
2023/06/19 01:46:08;;;;;;;;;;;;;;;23.67;45.73;97938.09;7365604;19;19919;-72
2023/06/19 01:48:35;;;;;;;;;;;;;;;23.59;45.96;97945.78;7359273;19;20179;-72
2023/06/19 01:51:03;;;;;;;;;;;;;;;23.53;47.19;97944.09;7367145;19;19907;-73
2023/06/19 01:53:30;;;;;;;;;;;;;;;23.44;47.28;97949.13;7357927;19;19918;-73
2023/06/19 01:55:59;;;;;;;;;;;;;;;23.28;48.51;97942.69;7367655;19;19933;-73
2023/06/19 01:58:28;;;;;;;;;;;;;;;23.32;47.44;97943.00;7357320;19;19919;-73
2023/06/19 02:00:55;;;;;;;;;;;;;;;23.30;48.27;97945.13;7364031;19;19927;-72
2023/06/19 02:03:22;;;;;;;;;;;;;;;23.17;47.76;97944.44;7368730;19;19938;-74
2023/06/19 02:05:48;;;;;;;;;;;;;;;23.35;48.17;97950.59;7376714;19;19919;-72
2023/06/19 02:08:15;;;;;;;;;;;;;;;23.47;47.62;97943.22;7371512;19;19926;-72
2023/06/19 02:10:42;;;;;;;;;;;;;;;23.47;47.99;97943.22;7368972;19;19926;-74
2023/06/19 02:13:09;;;;;;;;;;;;;;;23.49;47.97;97941.09;7373923;19;20024;-72
2023/06/19 02:15:35;;;;;;;;;;;;;;;23.55;47.95;97937.38;7365323;19;19923;-72
2023/06/19 02:18:02;;;;;;;;;;;;;;;23.51;47.78;97932.72;7370349;19;19918;-72
2023/06/19 02:20:29;;;;;;;;;;;;;;;23.45;48.56;97939.94;7368679;19;20361;-72
2023/06/19 02:22:56;;;;;;;;;;;;;;;23.47;49.31;97942.41;7372179;19;19915;-72
2023/06/19 02:25:22;;;;;;;;;;;;;;;23.44;49.14;97931.03;7369750;19;20324;-71
2023/06/19 02:27:49;;;;;;;;;;;;;;;23.37;49.38;97932.28;7368098;19;19926;-71
2023/06/19 02:30:16;;;;;;;;;;;;;;;23.41;49.66;97934.25;7373054;19;20328;-71
2023/06/19 02:32:42;;;;;;;;;;;;;;;23.47;49.61;97935.13;7362555;19;19914;-72
2023/06/19 02:35:10;;;;;;;;;;;;;;;23.38;51.00;97928.50;7370472;19;19922;-71
2023/06/19 02:37:37;;;;;;;;;;;;;;;23.36;50.29;97930.66;7325003;19;19927;-71
2023/06/19 02:40:04;;;;;;;;;;;;;;;23.26;50.63;97936.72;7372958;19;20392;-71
2023/06/19 02:42:31;;;;;;;;;;;;;;;23.21;50.60;97929.34;7361965;19;19922;-71
2023/06/19 02:45:03;;;;;;;;;;;;;;;22.99;51.10;97929.31;7368959;19;19923;-72
2023/06/19 02:47:33;;;;;;;;;;;;;;;22.97;52.43;97925.25;7362128;19;20655;-71
2023/06/19 02:50:00;;;;;;;;;;;;;;;22.95;51.79;97920.03;7367819;19;20650;-71
2023/06/19 02:52:27;;;;;;;;;;;;;;;22.90;52.45;97932.63;7357742;19;19929;-71
2023/06/19 02:54:53;;;;;;;;;;;;;;;22.84;52.93;97941.72;7368754;19;19923;-71
2023/06/19 02:57:20;;;;;;;;;;;;;;;22.77;53.21;97939.97;7367728;19;19938;-71
2023/06/19 02:59:47;;;;;;;;;;;;;;;22.72;53.38;97944.47;7365193;19;19932;-71
2023/06/19 03:02:14;;;;;;;;;;;;;;;22.66;53.44;97943.59;7368035;19;20272;-71
2023/06/19 03:04:42;;;;;;;;;;;;;;;22.63;53.93;97944.06;7358499;19;19919;-71
2023/06/19 03:07:09;;;;;;;;;;;;;;;22.66;54.30;97943.59;7370343;19;19926;-71
2023/06/19 03:09:37;;;;;;;;;;;;;;;22.69;53.31;97948.47;7358327;19;19953;-71
2023/06/19 03:12:04;;;;;;;;;;;;;;;22.77;53.56;97949.97;7366996;19;20341;-71
2023/06/19 03:14:30;;;;;;;;;;;;;;;22.81;52.46;97955.69;7372696;19;19932;-71
2023/06/19 03:16:57;;;;;;;;;;;;;;;22.79;54.63;97959.44;7380147;19;22772;-71
2023/06/19 03:19:24;;;;;;;;;;;;;;;22.82;53.59;97960.03;7367461;19;19933;-71
2023/06/19 03:21:50;;;;;;;;;;;;;;;22.79;54.82;97962.13;7368045;19;20422;-71
2023/06/19 03:24:17;;;;;;;;;;;;;;;22.77;55.16;97963.44;7367668;19;19926;-71
2023/06/19 03:26:44;;;;;;;;;;;;;;;22.74;54.17;97969.34;7362170;19;21125;-71
2023/06/19 03:29:11;;;;;;;;;;;;;;;22.70;54.45;97966.31;7370383;19;19926;-71
2023/06/19 03:31:53;;;;;;;;;;;;;;;22.67;53.86;97972.19;7371993;19;19915;-70
2023/06/19 03:34:22;;;;;;;;;;;;;;;22.66;54.81;97970.53;7370250;19;19919;-71
2023/06/19 03:36:50;;;;;;;;;;;;;;;22.64;54.98;97964.56;7373931;19;19915;-71
2023/06/19 03:39:17;;;;;;;;;;;;;;;22.66;54.38;97969.75;7371752;19;19919;-71
2023/06/19 03:41:44;;;;;;;;;;;;;;;22.64;54.70;97975.34;7365331;19;20692;-71
2023/06/19 03:44:10;;;;;;;;;;;;;;;22.59;55.40;97972.56;7371645;19;19929;-71
2023/06/19 03:46:37;;;;;;;;;;;;;;;22.50;55.03;97982.13;7363121;19;20277;-70
2023/06/19 03:49:04;;;;;;;;;;;;;;;22.57;54.90;97982.81;7368384;19;19947;-71
2023/06/19 03:51:31;;;;;;;;;;;;;;;22.58;54.65;97984.44;7365176;19;19958;-71
2023/06/19 03:53:58;;;;;;;;;;;;;;;22.59;55.01;97980.66;7370304;19;19915;-71
2023/06/19 03:56:25;;;;;;;;;;;;;;;22.53;55.21;97993.25;7370273;19;20650;-71
2023/06/19 03:58:52;;;;;;;;;;;;;;;22.57;55.06;97993.59;7366229;19;20380;-71
2023/06/19 04:01:19;;;;;;;;;;;;;;;22.61;54.75;97992.03;7365573;19;20382;-70
2023/06/19 04:03:47;;;;;;;;;;;;;;;22.61;54.99;97992.03;7363785;19;21094;-71
2023/06/19 04:06:14;;;;;;;;;;;;;;;22.62;55.00;97999.06;7370325;19;19934;-70
2023/06/19 04:08:41;;;;;;;;;;;;;;;22.65;54.97;98003.97;7363445;19;19927;-71
2023/06/19 04:11:11;;;;;;;;;;;;;;;22.69;54.66;97998.91;7368973;19;19930;-71
2023/06/19 04:13:37;;;;;;;;;;;;;;;22.72;54.31;98001.94;7363237;19;19922;-71
2023/06/19 04:16:04;;;;;;;;;;;;;;;22.75;53.96;97995.25;7368691;19;20435;-71
2023/06/19 04:18:31;;;;;;;;;;;;;;;22.74;54.06;97997.13;7367837;19;19998;-71
2023/06/19 04:20:58;;;;;;;;;;;;;;;22.76;54.09;98008.47;7371266;19;19990;-70
2023/06/19 04:23:25;;;;;;;;;;;;;;;22.78;53.91;98011.75;7368484;19;19922;-71
2023/06/19 04:25:51;;;;;;;;;;;;;;;22.77;53.58;98020.88;7358342;19;19947;-71
2023/06/19 04:28:18;;;;;;;;;;;;;;;22.85;53.49;98016.97;7372834;19;19923;-71
2023/06/19 04:30:44;;;;;;;;;;;;;;;22.90;53.77;98024.34;7366410;19;19919;-70
2023/06/19 04:33:11;;;;;;;;;;;;;;;22.87;53.75;98032.94;7367770;19;20353;-71
2023/06/19 04:35:40;;;;;;;;;;;;;;;23.03;52.60;98037.56;7364778;19;19926;-71
2023/06/19 04:38:07;;;;;;;;;;;;;;;23.06;52.76;98041.63;7369275;19;19925;-71
2023/06/19 04:40:34;;;;;;;;;;;;;;;23.04;53.48;98047.28;7359761;19;19943;-70
2023/06/19 04:43:05;;;;;;;;;;;;;;;23.00;53.24;98033.47;7363130;19;20260;-70
2023/06/19 04:45:32;;;;;;;;;;;;;;;22.86;54.42;98036.69;7359761;19;19929;-71
2023/06/19 04:48:02;;;;;;;;;;;;;;;22.85;54.05;98041.25;7370246;19;19925;-71
2023/06/19 04:50:29;;;;;;;;;;;;;;;22.71;54.95;98043.44;7365982;19;19919;-73
2023/06/19 04:52:56;;;;;;;;;;;;;;;22.81;54.90;98026.63;7365239;19;19938;-71
2023/06/19 04:55:25;;;;;;;;;;;;;;;22.85;54.61;98038.56;7368138;19;19918;-72
2023/06/19 04:57:52;;;;;;;;;;;;;;;22.94;54.81;98044.41;7366254;19;19923;-71
2023/06/19 05:00:19;;;;;;;;;;;;;;;22.94;54.95;98039.81;7373079;19;19922;-72
2023/06/19 05:02:47;;;;;;;;;;;;;;;23.04;55.59;98033.81;7361681;19;19922;-71
2023/06/19 05:05:14;;;;;;;;;;;;;;;23.23;54.48;98034.38;7367606;19;19956;-71
2023/06/19 05:07:40;;;;;;;;;;;;;;;23.40;53.92;98031.66;7366979;19;20361;-73
2023/06/19 05:10:07;;;;;;;;;;;;;;;23.49;54.02;98024.78;7364832;19;19922;-72
2023/06/19 05:12:34;;;;;;;;;;;;;;;23.58;54.78;98031.38;7361373;19;19915;-72
2023/06/19 05:15:02;;;;;;;;;;;;;;;23.71;53.50;98040.22;7364002;19;19915;-73
2023/06/19 05:17:28;;;;;;;;;;;;;;;23.83;53.59;98044.47;7366690;19;20529;-72
2023/06/19 05:19:55;;;;;;;;;;;;;;;24.00;53.59;98041.72;7368443;19;19910;-72
2023/06/19 05:22:23;;;;;;;;;;;;;;;24.10;53.58;98049.94;7364498;19;19978;-72
2023/06/19 05:24:50;;;;;;;;;;;;;;;24.26;53.55;98036.63;7360163;19;20593;-72
2023/06/19 05:27:17;;;;;;;;;;;;;;;24.36;52.42;98041.34;7371800;19;19919;-72
2023/06/19 05:29:44;;;;;;;;;;;;;;;24.51;51.76;98039.66;7354650;19;19922;-71
2023/06/19 05:32:11;;;;;;;;;;;;;;;24.49;50.94;98043.69;7362274;19;19927;-72
2023/06/19 05:34:37;;;;;;;;;;;;;;;24.55;51.10;98042.66;7364347;19;19936;-72
2023/06/19 05:37:04;;;;;;;;;;;;;;;24.44;52.37;98041.75;7367557;19;19923;-72
2023/06/19 05:39:31;;;;;;;;;;;;;;;24.45;52.61;98040.66;7365887;19;20224;-72
2023/06/19 05:41:57;;;;;;;;;;;;;;;24.31;52.94;98045.63;7364494;19;19929;-73
2023/06/19 05:44:24;;;;;;;;;;;;;;;24.37;51.48;98042.97;7370392;19;19915;-72
2023/06/19 05:46:51;;;;;;;;;;;;;;;24.46;51.53;98050.41;7365216;19;19954;-72
2023/06/19 05:49:17;;;;;;;;;;;;;;;24.45;51.69;98062.28;7367452;19;19927;-72
2023/06/19 05:51:44;;;;;;;;;;;;;;;24.53;51.09;98058.31;7364101;19;20389;-71
2023/06/19 05:54:11;;;;;;;;;;;;;;;24.45;51.79;98067.69;7370330;19;19915;-72
2023/06/19 05:56:38;;;;;;;;;;;;;;;24.48;51.85;98067.19;7365244;19;20260;-72
2023/06/19 05:59:04;;;;;;;;;;;;;;;24.50;52.01;98070.47;7373161;19;19918;-72
2023/06/19 06:01:31;;;;;;;;;;;;;;;24.51;51.98;98076.69;7371446;19;19927;-72
2023/06/19 06:03:58;;;;;;;;;;;;;;;24.50;51.33;98086.69;7369682;19;19923;-73
2023/06/19 06:06:25;;;;;;;;;;;;;;;24.49;51.62;98079.66;7371088;19;19951;-72
2023/06/19 06:08:52;;;;;;;;;;;;;;;24.66;50.68;98081.44;7367848;19;19922;-73
2023/06/19 06:11:19;;;;;;;;;;;;;;;24.59;51.45;98078.13;7368093;19;19934;-72
2023/06/19 06:13:46;;;;;;;;;;;;;;;24.64;51.72;98078.97;7362640;19;19956;-72
2023/06/19 06:16:14;;;;;;;;;;;;;;;24.74;51.71;98081.81;7371594;19;19922;-72
2023/06/19 06:18:40;;;;;;;;;;;;;;;24.81;52.36;98081.63;7366896;19;19927;-72
2023/06/19 06:21:08;;;;;;;;;;;;;;;24.87;52.17;98072.47;7366614;19;20013;-73
2023/06/19 06:23:34;;;;;;;;;;;;;;;24.92;50.82;98077.94;7366782;19;19922;-72
2023/06/19 06:26:02;;;;;;;;;;;;;;;25.13;51.19;98078.13;7371732;19;19915;-72
2023/06/19 06:28:29;;;;;;;;;;;;;;;25.29;50.49;98079.91;7370258;19;20316;-72
2023/06/19 06:30:56;;;;;;;;;;;;;;;25.41;50.97;98077.03;7364715;19;19922;-72
2023/06/19 06:33:23;;;;;;;;;;;;;;;25.39;50.67;98077.28;7370662;19;19923;-72
2023/06/19 06:35:51;;;;;;;;;;;;;;;25.48;49.98;98077.63;7364106;19;19926;-72
2023/06/19 06:38:18;;;;;;;;;;;;;;;25.48;49.66;98087.63;7370858;19;19923;-72
2023/06/19 06:40:45;;;;;;;;;;;;;;;25.47;50.24;98092.25;7367348;19;19919;-71
2023/06/19 06:43:12;;;;;;;;;;;;;;;25.52;49.86;98092.28;7368380;19;19930;-72
2023/06/19 06:45:41;;;;;;;;;;;;;;;25.58;48.93;98095.84;7364894;19;19926;-72
2023/06/19 06:48:08;;;;;;;;;;;;;;;25.51;49.59;98096.06;7375021;19;19982;-71
2023/06/19 06:50:35;;;;;;;;;;;;;;;25.57;49.99;98099.66;7380238;19;19919;-72
2023/06/19 06:53:02;;;;;;;;;;;;;;;25.66;49.91;98100.78;7376613;19;19923;-71
2023/06/19 06:55:29;;;;;;;;;;;;;;;25.81;49.00;98105.50;7378379;19;19930;-72
2023/06/19 06:57:56;;;;;;;;;;;;;;;25.79;50.05;98107.66;7374086;19;19933;-73
2023/06/19 07:00:22;;;;;;;;;;;;;;;26.01;49.91;98102.09;7377905;19;19922;-72
2023/06/19 07:02:50;;;;;;;;;;;;;;;26.11;49.16;98104.88;7370267;19;19922;-71
2023/06/19 07:05:17;;;;;;;;;;;;;;;26.11;49.15;98110.31;7377904;19;19922;-73
2023/06/19 07:07:43;;;;;;;;;;;;;;;26.30;49.01;98105.22;7374673;19;19922;-71
2023/06/19 07:10:10;;;;;;;;;;;;;;;26.41;48.60;98106.09;7373041;19;19922;-72
2023/06/19 07:12:47;;;;;;;;;;;;;;;26.67;47.43;98110.59;7366959;19;19932;-72
2023/06/19 07:15:14;;;;;;;;;;;;;;;26.92;46.97;98106.31;7374673;19;19978;-71
2023/06/19 07:17:40;;;;;;;;;;;;;;;26.98;45.74;98112.56;7371047;19;19957;-74
2023/06/19 07:20:07;;;;;;;;;;;;;;;27.44;44.68;98109.94;7376235;19;19923;-71
2023/06/19 07:22:34;;;;;;;;;;;;;;;27.24;45.61;98108.81;7374985;19;20348;-72
2023/06/19 07:25:01;;;;;;;;;;;;;;;27.08;44.42;98109.84;7375412;19;19918;-72
2023/06/19 07:27:28;;;;;;;;;;;;;;;26.86;45.83;98105.47;7374059;19;20301;-71
2023/06/19 07:29:55;;;;;;;;;;;;;;;26.74;45.55;98112.22;7371175;19;19923;-72
2023/06/19 07:32:22;;;;;;;;;;;;;;;26.76;45.02;98120.91;7371881;19;19926;-72
2023/06/19 07:34:48;;;;;;;;;;;;;;;26.64;46.14;98116.53;7369511;19;20356;-72
2023/06/19 07:37:17;;;;;;;;;;;;;;;26.59;46.39;98121.94;7375172;19;20408;-73
2023/06/19 07:39:45;;;;;;;;;;;;;;;26.67;45.86;98121.44;7372023;19;19914;-73
2023/06/19 07:42:13;;;;;;;;;;;;;;;26.64;44.47;98119.25;7370684;19;19993;-73
2023/06/19 07:44:39;;;;;;;;;;;;;;;26.42;47.21;98119.41;7368735;19;19919;-72
2023/06/19 07:47:06;;;;;;;;;;;;;;;26.53;46.02;98124.91;7374693;19;20323;-71
2023/06/19 07:49:33;;;;;;;;;;;;;;;26.39;46.64;98122.66;7372982;19;19929;-71
2023/06/19 07:52:00;;;;;;;;;;;;;;;26.74;45.83;98131.22;7368959;19;19918;-72
2023/06/19 07:54:27;;;;;;;;;;;;;;;26.74;45.87;98123.88;7371809;19;19930;-73
2023/06/19 07:56:53;;;;;;;;;;;;;;;26.88;44.91;98125.03;7370014;19;19998;-72
2023/06/19 07:59:20;;;;;;;;;;;;;;;27.09;46.04;98131.31;7376054;19;19926;-72
2023/06/19 08:01:47;;;;;;;;;;;;;;;27.18;44.05;98128.91;7365869;19;19922;-72
2023/06/19 08:04:13;;;;;;;;;;;;;;;27.44;43.14;98135.19;7373177;19;19926;-72
2023/06/19 08:06:40;;;;;;;;;;;;;;;27.62;43.28;98135.72;7371033;19;19926;-72
2023/06/19 08:09:07;;;;;;;;;;;;;;;27.58;44.01;98136.25;7373030;19;19919;-72
2023/06/19 08:11:33;;;;;;;;;;;;;;;27.72;43.80;98143.84;7372212;19;19919;-73
2023/06/19 08:14:00;;;;;;;;;;;;;;;27.57;43.63;98141.97;7363741;19;19923;-72
2023/06/19 08:16:27;;;;;;;;;;;;;;;27.44;42.97;98131.66;7372790;19;20332;-72
2023/06/19 08:18:53;;;;;;;;;;;;;;;27.44;43.94;98137.91;7369840;19;19911;-71
2023/06/19 08:21:21;;;;;;;;;;;;;;;27.46;42.32;98134.88;7373261;19;19923;-72
2023/06/19 08:23:48;;;;;;;;;;;;;;;27.60;42.38;98138.72;7366729;19;19915;-71
2023/06/19 08:26:15;;;;;;;;;;;;;;;27.95;40.82;98124.28;7373779;19;20337;-73
2023/06/19 08:28:41;;;;;;;;;;;;;;;27.89;40.68;98122.69;7367889;19;20633;-77
2023/06/19 08:31:09;;;;;;;;;;;;;;;28.01;41.61;98120.47;7367795;19;19926;-71
2023/06/19 08:33:35;;;;;;;;;;;;;;;27.82;40.38;98116.69;7371776;19;20036;-72
2023/06/19 08:36:02;;;;;;;;;;;;;;;27.56;41.36;98122.13;7365296;19;19921;-73
2023/06/19 08:38:29;;;;;;;;;;;;;;;27.80;41.75;98107.97;7375014;19;19934;-72
2023/06/19 08:40:56;;;;;;;;;;;;;;;28.09;41.83;98107.41;7370783;19;19921;-72
2023/06/19 08:43:23;;;;;;;;;;;;;;;27.97;40.61;98103.09;7369289;19;21072;-73
2023/06/19 08:46:03;;;;;;;;;;;;;;;28.29;41.46;98104.63;7368251;19;19990;-71
2023/06/19 08:48:30;;;;;;;;;;;;;;;28.48;40.65;98093.16;7372649;19;19919;-72
2023/06/19 08:50:56;;;;;;;;;;;;;;;28.48;41.11;98098.59;7364413;19;19923;-73
2023/06/19 08:53:23;;;;;;;;;;;;;;;28.45;39.61;98098.03;7373804;19;21043;-72
2023/06/19 08:55:50;;;;;;;;;;;;;;;28.21;41.43;98103.28;7367518;19;20485;-71
2023/06/19 08:58:23;;;;;;;;;;;;;;;28.10;41.70;98104.41;7373634;19;19988;-71
2023/06/19 09:00:50;;;;;;;;;;;;;;;27.89;42.31;98097.41;7367740;19;19995;-73
2023/06/19 09:03:24;;;;;;;;;;;;;;;28.04;42.11;98102.78;7368470;19;19982;-73
2023/06/19 09:05:51;;;;;;;;;;;;;;;27.94;41.51;98106.34;7369229;19;19937;-72
2023/06/19 09:08:20;;;;;;;;;;;;;;;28.19;42.04;98104.66;7371028;19;19923;-72
2023/06/19 09:10:56;;;;;;;;;;;;;;;28.57;41.56;98107.78;7365191;19;19982;-71
2023/06/19 09:13:22;;;;;;;;;;;;;;;29.00;41.23;98102.66;7372151;19;19945;-71
2023/06/19 09:15:50;;;;;;;;;;;;;;;29.18;39.31;98099.31;7367277;19;19996;-73
2023/06/19 09:18:17;;;;;;;;;;;;;;;29.16;38.60;98097.97;7369917;19;19922;-71
2023/06/19 09:20:44;;;;;;;;;;;;;;;29.07;39.72;98097.75;7369127;19;19925;-72
2023/06/19 09:23:11;;;;;;;;;;;;;;;29.24;39.35;98105.53;7368327;19;19927;-73
2023/06/19 09:25:44;;;;;;;;;;;;;;;29.45;38.10;98098.81;7372568;19;20264;-72
2023/06/19 09:28:24;;;;;;;;;;;;;;;29.65;38.57;98107.91;7374716;19;19927;-71
2023/06/19 09:31:01;;;;;;;;;;;;;;;29.64;38.51;98100.81;7363185;19;19922;-72
2023/06/19 09:33:29;;;;;;;;;;;;;;;29.79;38.34;98097.19;7368019;19;19922;-71
2023/06/19 09:35:56;;;;;;;;;;;;;;;29.71;38.52;98091.25;7367401;19;19925;-72
2023/06/19 09:38:26;;;;;;;;;;;;;;;29.94;37.77;98094.31;7372053;19;20260;-72
2023/06/19 09:40:55;;;;;;;;;;;;;;;30.05;37.42;98095.00;7361685;19;19945;-72
2023/06/19 09:43:25;;;;;;;;;;;;;;;30.36;37.14;98096.31;7369431;19;20012;-72
2023/06/19 09:45:54;;;;;;;;;;;;;;;30.12;36.76;98096.28;7369476;19;19914;-71
2023/06/19 09:48:23;;;;;;;;;;;;;;;30.07;38.06;98092.78;7373433;19;19919;-71
2023/06/19 09:50:52;;;;;;;;;;;;;;;30.06;37.84;98102.88;7361908;19;19925;-73
2023/06/19 09:53:19;;;;;;;;;;;;;;;30.14;37.51;98098.72;7369323;19;20010;-76
2023/06/19 09:55:50;;;;;;;;;;;;;;;29.96;36.86;98101.09;7364067;19;19923;-73
2023/06/19 09:58:19;;;;;;;;;;;;;;;30.09;36.89;98090.56;7367621;19;19926;-73
2023/06/19 10:00:46;;;;;;;;;;;;;;;30.25;36.28;98088.50;7367172;19;19941;-72
2023/06/19 10:03:14;;;;;;;;;;;;;;;30.46;36.83;98086.34;7368221;19;20482;-72
2023/06/19 10:05:40;;;;;;;;;;;;;;;30.72;36.31;98086.81;7368142;19;19923;-72
2023/06/19 10:08:08;;;;;;;;;;;;;;;30.51;36.52;98081.63;7368526;19;19913;-73
2023/06/19 10:10:34;;;;;;;;;;;;;;;30.20;37.23;98092.06;7369591;19;19938;-72
2023/06/19 10:13:11;;;;;;;;;;;;;;;29.91;38.51;98084.78;7361457;19;19926;-73
2023/06/19 10:15:42;;;;;;;;;;;;;;;29.89;36.73;98086.19;7365382;19;20525;-72
2023/06/19 10:18:16;;;;;;;;;;;;;;;29.70;37.12;98083.34;7369824;19;19931;-72
2023/06/19 10:20:43;;;;;;;;;;;;;;;29.83;37.36;98087.31;7368984;19;19968;-73
2023/06/19 10:23:17;;;;;;;;;;;;;;;29.89;36.47;98084.25;7371463;19;19922;-72
2023/06/19 10:25:46;;;;;;;;;;;;;;;30.13;37.91;98080.72;7371456;19;19919;-73
2023/06/19 10:28:16;;;;;;;;;;;;;;;29.88;38.93;98085.34;7379804;19;20015;-72
2023/06/19 10:30:43;;;;;;;;;;;;;;;29.77;38.99;98077.56;7371941;19;19925;-73
2023/06/19 10:33:10;;;;;;;;;;;;;;;29.87;37.70;98078.28;7372367;19;19919;-71
2023/06/19 10:35:40;;;;;;;;;;;;;;;29.90;38.28;98074.16;7377170;19;19919;-73
2023/06/19 10:38:07;;;;;;;;;;;;;;;29.90;38.33;98074.97;7370636;19;20573;-73
2023/06/19 10:40:35;;;;;;;;;;;;;;;29.93;37.94;98073.56;7374818;19;19919;-73
2023/06/19 10:43:03;;;;;;;;;;;;;;;30.00;37.95;98063.13;7368082;19;20696;-72
2023/06/19 10:45:30;;;;;;;;;;;;;;;29.77;38.49;98069.38;7373365;19;19910;-71
2023/06/19 10:47:57;;;;;;;;;;;;;;;29.90;38.20;98061.31;7366635;19;19918;-72
2023/06/19 10:50:24;;;;;;;;;;;;;;;29.95;38.75;98060.47;7375191;19;19927;-72
2023/06/19 10:52:54;;;;;;;;;;;;;;;29.79;39.24;98064.47;7369137;19;19923;-72
2023/06/19 10:55:23;;;;;;;;;;;;;;;29.62;39.64;98064.84;7372503;19;19943;-72
2023/06/19 10:57:50;;;;;;;;;;;;;;;29.48;39.09;98064.72;7368190;19;19926;-72
2023/06/19 11:00:24;;;;;;;;;;;;;;;29.50;40.08;98067.97;7375478;19;19914;-72
2023/06/19 11:02:51;;;;;;;;;;;;;;;29.63;39.94;98061.84;7365758;19;19934;-72
2023/06/19 11:05:21;;;;;;;;;;;;;;;29.43;40.60;98062.84;7373804;19;19988;-71
2023/06/19 11:07:52;;;;;;;;;;;;;;;29.61;39.75;98058.59;7369799;19;20471;-71
2023/06/19 11:10:19;;;;;;;;;;;;;;;29.44;39.75;98063.69;7373488;19;19922;-74
2023/06/19 11:12:46;;;;;;;;;;;;;;;29.57;39.63;98070.34;7366257;19;19922;-73
2023/06/19 11:15:13;;;;;;;;;;;;;;;29.60;39.81;98067.88;7370316;19;19925;-73
2023/06/19 11:17:40;;;;;;;;;;;;;;;29.79;40.10;98065.25;7374835;19;19943;-72
2023/06/19 11:20:16;;;;;;;;;;;;;;;30.01;38.78;98066.66;7361047;19;19942;-72
2023/06/19 11:22:42;;;;;;;;;;;;;;;29.98;40.17;98062.59;7371055;19;19935;-73
2023/06/19 11:25:10;;;;;;;;;;;;;;;29.97;38.75;98061.00;7369445;19;20433;-71
2023/06/19 11:27:39;;;;;;;;;;;;;;;29.75;39.10;98054.13;7372600;19;20268;-72
2023/06/19 11:30:07;;;;;;;;;;;;;;;29.97;39.66;98052.81;7369603;19;20537;-72
2023/06/19 11:32:40;;;;;;;;;;;;;;;29.69;39.05;98049.81;7370370;19;19921;-72
2023/06/19 11:35:09;;;;;;;;;;;;;;;29.67;39.63;98062.91;7368809;19;19919;-73
2023/06/19 11:37:35;;;;;;;;;;;;;;;29.69;39.23;98049.81;7371808;19;20723;-71
2023/06/19 11:40:14;;;;;;;;;;;;;;;29.85;39.33;98050.47;7368952;19;19940;-71
2023/06/19 11:42:46;;;;;;;;;;;;;;;29.87;39.81;98050.19;7370574;19;19951;-74
2023/06/19 11:45:13;;;;;;;;;;;;;;;30.02;39.49;98046.47;7371422;19;19922;-72
2023/06/19 11:47:40;;;;;;;;;;;;;;;30.06;38.96;98042.88;7373311;19;19923;-72
2023/06/19 11:50:07;;;;;;;;;;;;;;;29.99;38.97;98042.44;7366181;19;19918;-71
2023/06/19 11:52:34;;;;;;;;;;;;;;;29.80;39.68;98047.78;7372008;19;19919;-73
2023/06/19 11:55:00;;;;;;;;;;;;;;;29.80;39.57;98041.53;7364369;19;19919;-73
2023/06/19 11:57:27;;;;;;;;;;;;;;;29.72;40.36;98049.25;7372596;19;19929;-72
2023/06/19 11:59:54;;;;;;;;;;;;;;;29.70;39.41;98042.44;7367743;19;19922;-74
2023/06/19 12:02:21;;;;;;;;;;;;;;;29.60;40.04;98046.06;7371449;19;20296;-72
2023/06/19 12:04:48;;;;;;;;;;;;;;;29.43;40.11;98051.13;7367851;19;19922;-72
2023/06/19 12:07:15;;;;;;;;;;;;;;;29.65;39.12;98046.06;7372999;19;20274;-71
2023/06/19 12:09:43;;;;;;;;;;;;;;;29.61;38.87;98042.25;7368847;19;19929;-71
2023/06/19 12:12:10;;;;;;;;;;;;;;;29.69;38.44;98043.56;7366394;19;19917;-71
2023/06/19 12:14:37;;;;;;;;;;;;;;;29.79;39.53;98037.19;7373590;19;19930;-71
2023/06/19 12:17:03;;;;;;;;;;;;;;;29.93;39.17;98032.66;7369645;19;19925;-71
2023/06/19 12:19:30;;;;;;;;;;;;;;;30.00;38.79;98027.69;7371078;19;19915;-72
2023/06/19 12:21:58;;;;;;;;;;;;;;;29.88;38.27;98030.78;7365749;19;20412;-73
2023/06/19 12:24:25;;;;;;;;;;;;;;;30.03;37.33;98026.28;7373892;19;19929;-72
2023/06/19 12:26:52;;;;;;;;;;;;;;;29.86;39.17;98016.66;7368695;19;19930;-72
2023/06/19 12:29:20;;;;;;;;;;;;;;;29.86;37.89;98019.38;7371457;19;19934;-72
2023/06/19 12:31:47;;;;;;;;;;;;;;;29.87;39.25;98021.00;7371924;19;21022;-72
2023/06/19 12:34:14;;;;;;;;;;;;;;;29.73;39.51;98018.16;7372208;19;20025;-73
2023/06/19 12:36:56;;;;;;;;;;;;;;;29.88;39.53;98019.09;7366250;19;19918;-74
2023/06/19 12:39:24;;;;;;;;;;;;;;;30.06;38.78;98010.13;7371534;19;19923;-72
2023/06/19 12:41:51;;;;;;;;;;;;;;;30.30;39.68;98015.59;7365918;19;19919;-72
2023/06/19 12:44:18;;;;;;;;;;;;;;;30.52;37.78;98012.31;7370397;19;19940;-72
2023/06/19 12:46:45;;;;;;;;;;;;;;;30.57;37.08;98014.97;7370298;19;20376;-74
2023/06/19 12:49:12;;;;;;;;;;;;;;;30.61;36.60;98012.44;7368738;19;19919;-71
2023/06/19 12:51:39;;;;;;;;;;;;;;;31.04;36.51;98018.66;7373772;19;19918;-72